createdAt,value
2023-04-03T00:02:00.612Z,1.52
2023-04-03T00:04:31.268Z,1.30
2023-04-03T00:07:01.979Z,2.05
2023-04-03T00:09:31.578Z,1.45
2023-04-03T00:12:01.132Z,1.00
2023-04-03T00:14:30.685Z,1.20
2023-04-03T00:16:59.952Z,1.40
2023-04-03T00:19:29.598Z,2.25
2023-04-03T00:22:00.462Z,2.47
2023-04-03T00:24:30.042Z,1.75
2023-04-03T00:26:59.204Z,2.15
2023-04-03T00:29:28.770Z,1.45
2023-04-03T00:31:57.977Z,1.52
2023-04-03T00:34:27.481Z,0.90
2023-04-03T00:36:56.812Z,1.08
2023-04-03T00:39:28.179Z,1.00
2023-04-03T00:41:57.359Z,1.23
2023-04-03T00:45:05.904Z,1.60
2023-04-03T00:47:35.246Z,1.02
2023-04-03T00:50:05.505Z,1.10
2023-04-03T00:52:34.942Z,1.40
2023-04-03T00:55:10.886Z,1.00
2023-04-03T00:57:41.008Z,0.95
2023-04-03T01:00:13.401Z,1.00
2023-04-03T01:02:42.886Z,1.08
2023-04-03T01:05:16.128Z,0.85
2023-04-03T01:07:47.379Z,0.90
2023-04-03T01:10:20.682Z,0.90
2023-04-03T01:12:51.890Z,1.48
2023-04-03T01:15:24.210Z,1.02
2023-04-03T01:17:55.005Z,1.20
2023-04-03T01:21:02.605Z,1.50
2023-04-03T01:23:46.743Z,1.10
2023-04-03T01:26:17.958Z,1.20
2023-04-03T01:28:47.854Z,1.30
2023-04-03T01:31:24.491Z,1.63
2023-04-03T01:33:55.490Z,1.27
2023-04-03T01:36:27.073Z,1.15
2023-04-03T01:38:57.871Z,1.63
2023-04-03T01:41:27.720Z,1.27
2023-04-03T01:44:02.636Z,1.23
2023-04-03T01:46:32.667Z,1.10
2023-04-03T01:49:03.692Z,1.10
2023-04-03T01:51:34.134Z,1.17
2023-04-03T01:54:03.504Z,1.38
2023-04-03T01:56:33.270Z,1.60
2023-04-03T01:59:02.820Z,1.38
2023-04-03T02:01:32.391Z,1.55
2023-04-03T02:04:03.128Z,1.20
2023-04-03T02:06:32.687Z,1.73
2023-04-03T02:09:02.020Z,1.38
2023-04-03T02:11:33.445Z,1.20
2023-04-03T02:14:03.235Z,1.40
2023-04-03T02:16:33.118Z,1.30
2023-04-03T02:19:04.023Z,1.10
2023-04-03T02:21:33.957Z,2.05
2023-04-03T02:24:03.260Z,1.13
2023-04-03T02:26:32.998Z,1.38
2023-04-03T02:29:02.295Z,0.95
2023-04-03T02:36:33.538Z,0.95
2023-04-03T02:39:06.883Z,0.98
2023-04-03T02:41:38.358Z,0.77
2023-04-03T02:44:14.388Z,1.13
2023-04-03T02:46:44.326Z,1.08
2023-04-03T02:49:13.587Z,1.45
2023-04-03T02:51:44.506Z,1.42
2023-04-03T02:54:14.681Z,1.58
2023-04-03T02:56:48.630Z,1.38
2023-04-03T02:59:18.210Z,1.10
2023-04-03T03:01:47.968Z,1.35
2023-04-03T03:04:17.416Z,1.13
2023-04-03T03:06:48.780Z,0.90
2023-04-03T03:09:17.976Z,0.90
2023-04-03T03:11:47.782Z,1.00
2023-04-03T03:14:17.115Z,0.75
2023-04-03T03:16:46.750Z,1.00
2023-04-03T03:19:16.061Z,1.10
2023-04-03T03:21:47.404Z,1.33
2023-04-03T03:24:16.919Z,0.90
2023-04-03T03:26:46.627Z,0.90
2023-04-03T03:29:15.945Z,1.02
2023-04-03T03:31:45.892Z,1.02
2023-04-03T03:34:15.227Z,1.08
2023-04-03T03:36:44.841Z,1.02
2023-04-03T03:39:15.667Z,1.10
2023-04-03T03:41:45.280Z,1.05
2023-04-03T03:44:15.448Z,1.75
2023-04-03T03:46:45.536Z,0.93
2023-04-03T03:49:15.017Z,1.08
2023-04-03T03:51:44.549Z,0.98
2023-04-03T03:54:16.900Z,1.13
2023-04-03T03:56:46.958Z,1.67
2023-04-03T03:59:16.431Z,1.67
2023-04-03T04:01:46.499Z,2.67
2023-04-03T04:04:16.089Z,1.75
2023-04-03T04:06:46.093Z,3.45
2023-04-03T04:09:16.739Z,1.70
2023-04-03T04:11:46.219Z,1.55
2023-04-03T04:14:16.630Z,1.00
2023-04-03T04:16:47.201Z,1.05
2023-04-03T04:19:21.902Z,1.20
2023-04-03T04:21:52.513Z,1.90
2023-04-03T04:24:23.849Z,3.20
2023-04-03T04:26:56.146Z,4.15
2023-04-03T04:29:26.286Z,2.97
2023-04-03T04:31:56.340Z,1.73
2023-04-03T04:34:26.691Z,1.17
2023-04-03T04:36:56.470Z,1.42
2023-04-03T04:39:27.492Z,1.90
2023-04-03T04:41:59.649Z,1.60
2023-04-03T04:44:31.297Z,1.30
2023-04-03T04:47:01.734Z,2.30
2023-04-03T04:49:31.035Z,1.77
2023-04-03T04:52:00.717Z,1.35
2023-04-03T04:54:35.060Z,1.83
2023-04-03T04:57:05.632Z,1.80
2023-04-03T04:59:35.302Z,1.90
2023-04-03T05:02:06.035Z,2.15
2023-04-03T05:04:35.767Z,2.10
2023-04-03T05:09:43.338Z,1.55
2023-04-03T05:12:14.567Z,1.10
2023-04-03T05:14:51.443Z,1.20
2023-04-03T05:17:21.921Z,1.50
2023-04-03T05:19:55.568Z,1.42
2023-04-03T05:22:26.621Z,2.03
2023-04-03T05:25:01.046Z,1.85
2023-04-03T05:27:31.163Z,3.03
2023-04-03T05:30:01.473Z,2.05
2023-04-03T05:32:32.599Z,1.75
2023-04-03T05:35:25.522Z,1.33
2023-04-03T05:37:59.482Z,1.48
2023-04-03T05:40:30.338Z,1.60
2023-04-03T05:43:00.259Z,1.42
2023-04-03T05:45:33.258Z,2.15
2023-04-03T05:48:03.260Z,2.50
2023-04-03T05:50:33.925Z,2.00
2023-04-03T05:53:06.160Z,2.20
2023-04-03T05:55:37.488Z,1.45
2023-04-03T05:58:08.398Z,1.60
2023-04-03T06:00:40.209Z,1.45
2023-04-03T06:03:10.067Z,2.22
2023-04-03T06:05:39.921Z,2.10
2023-04-03T06:08:10.235Z,2.15
2023-04-03T06:10:41.360Z,3.88
2023-04-03T06:13:11.178Z,2.08
2023-04-03T06:15:40.929Z,2.10
2023-04-03T06:18:12.335Z,1.60
2023-04-03T06:20:41.747Z,1.27
2023-04-03T06:23:11.489Z,1.42
2023-04-03T06:25:43.126Z,1.60
2023-04-03T06:28:12.973Z,1.88
2023-04-03T06:30:42.298Z,1.58
2023-04-03T06:33:11.866Z,1.02
2023-04-03T06:35:41.916Z,1.27
2023-04-03T06:38:12.258Z,1.58
2023-04-03T06:40:43.146Z,1.60
2023-04-03T06:43:12.720Z,1.20
2023-04-03T06:45:42.134Z,1.65
2023-04-03T06:48:12.737Z,1.85
2023-04-03T06:50:42.215Z,2.15
2023-04-03T06:53:13.145Z,6.47
2023-04-03T06:55:43.966Z,6.20
2023-04-03T06:58:13.468Z,2.28
2023-04-03T07:00:43.028Z,1.00
2023-04-03T07:03:12.623Z,1.83
2023-04-03T07:05:44.084Z,1.45
2023-04-03T07:08:13.719Z,1.38
2023-04-03T07:10:44.401Z,2.75
2023-04-03T07:13:14.119Z,3.15
2023-04-03T07:15:43.694Z,2.92
2023-04-03T07:18:34.415Z,1.50
2023-04-03T07:21:04.050Z,2.13
2023-04-03T07:23:33.893Z,2.20
2023-04-03T07:26:04.630Z,1.55
2023-04-03T07:29:03.073Z,1.27
2023-04-03T07:31:32.574Z,3.22
2023-04-03T07:34:02.331Z,3.10
2023-04-03T07:36:34.400Z,2.13
2023-04-03T07:39:04.018Z,3.50
2023-04-03T07:41:35.086Z,1.85
2023-04-03T07:44:05.748Z,3.30
2023-04-03T07:46:35.182Z,2.45
2023-04-03T07:49:05.056Z,1.25
2023-04-03T07:51:34.858Z,1.85
2023-04-03T07:54:05.152Z,2.83
2023-04-03T07:56:36.183Z,1.70
2023-04-03T07:59:05.786Z,2.22
2023-04-03T08:01:35.059Z,1.52
2023-04-03T08:04:04.739Z,1.90
2023-04-03T08:06:45.701Z,1.70
2023-04-03T08:09:17.379Z,1.63
2023-04-03T08:11:48.589Z,1.42
2023-04-03T08:14:19.683Z,1.90
2023-04-03T08:16:50.797Z,1.90
2023-04-03T08:19:26.257Z,1.00
2023-04-03T08:24:26.426Z,1.40
2023-04-03T08:26:57.641Z,2.25
2023-04-03T08:29:27.715Z,0.88
2023-04-03T08:31:56.953Z,1.33
2023-04-03T08:34:27.227Z,1.75
2023-04-03T08:36:56.826Z,1.00
2023-04-03T08:39:26.519Z,1.42
2023-04-03T08:41:59.958Z,1.02
2023-04-03T08:44:41.593Z,1.40
2023-04-03T08:47:20.763Z,1.85
2023-04-03T08:49:54.248Z,1.25
2023-04-03T08:52:31.593Z,1.10
2023-04-03T08:55:04.191Z,1.30
2023-04-03T08:57:38.524Z,1.33
2023-04-03T09:00:18.368Z,2.45
2023-04-03T09:02:49.828Z,1.00
2023-04-03T09:05:23.392Z,0.80
2023-04-03T09:08:02.156Z,1.00
2023-04-03T09:10:35.637Z,2.33
2023-04-03T09:13:13.434Z,4.75
2023-04-03T09:15:44.036Z,2.80
2023-04-03T09:18:19.015Z,1.60
2023-04-03T09:20:56.061Z,2.80
2023-04-03T09:23:30.780Z,5.82
2023-04-03T09:26:06.212Z,2.08
2023-04-03T09:28:49.401Z,4.03
2023-04-03T09:31:24.216Z,4.07
2023-04-03T09:33:57.285Z,4.13
2023-04-03T09:36:44.321Z,6.25
2023-04-03T09:39:17.075Z,2.20
2023-04-03T09:42:00.687Z,3.15
2023-04-03T09:44:33.527Z,5.90
2023-04-03T09:48:15.506Z,2.25
2023-04-03T09:51:55.047Z,1.42
2023-04-03T09:55:30.655Z,1.70
2023-04-03T09:59:10.848Z,4.03
2023-04-03T10:02:41.930Z,2.25
2023-04-03T10:05:34.354Z,1.30
2023-04-03T10:08:13.249Z,3.78
2023-04-03T10:10:42.891Z,2.70
2023-04-03T10:13:21.147Z,1.40
2023-04-03T10:15:57.707Z,2.60
2023-04-03T10:18:46.926Z,2.55
2023-04-03T10:21:28.451Z,3.15
2023-04-03T10:24:08.515Z,1.95
2023-04-03T10:26:47.449Z,2.78
2023-04-03T10:29:33.095Z,2.85
2023-04-03T10:32:16.903Z,3.80
2023-04-03T10:35:02.370Z,3.45
2023-04-03T10:37:43.734Z,2.05
2023-04-03T10:40:24.890Z,2.60
2023-04-03T10:43:01.909Z,2.58
2023-04-03T10:45:40.455Z,1.65
2023-04-03T10:48:18.616Z,2.88
2023-04-03T10:51:00.236Z,3.20
2023-04-03T10:53:39.522Z,3.85
2023-04-03T10:56:18.400Z,2.10
2023-04-03T10:58:52.150Z,1.60
2023-04-03T11:01:25.358Z,1.70
2023-04-03T11:03:59.310Z,2.42
2023-04-03T11:06:39.411Z,1.27
2023-04-03T11:09:20.855Z,2.08
2023-04-03T11:11:53.841Z,1.90
2023-04-03T11:14:29.715Z,1.63
2023-04-03T11:17:13.213Z,1.00
2023-04-03T11:19:47.434Z,1.65
2023-04-03T11:22:27.784Z,1.80
2023-04-03T11:25:05.865Z,1.30
2023-04-03T11:27:42.636Z,1.35
2023-04-03T11:30:20.766Z,1.60
2023-04-03T11:33:12.871Z,5.47
2023-04-03T11:35:47.088Z,2.55
2023-04-03T11:38:25.117Z,1.55
2023-04-03T11:40:56.708Z,2.10
2023-04-03T11:43:28.135Z,1.77
2023-04-03T11:46:01.910Z,0.95
2023-04-03T11:49:01.487Z,0.90
2023-04-03T11:51:54.723Z,1.27
2023-04-03T11:54:48.997Z,1.45
2023-04-03T11:58:03.923Z,1.60
2023-04-03T12:00:56.985Z,1.60
2023-04-03T12:04:05.198Z,1.80
2023-04-03T12:07:22.796Z,1.58
2023-04-03T12:12:39.024Z,1.60
2023-04-03T12:15:28.029Z,2.67
2023-04-03T12:17:57.745Z,1.00
2023-04-03T12:20:54.588Z,1.00
2023-04-03T12:23:33.259Z,1.13
2023-04-03T12:26:05.823Z,1.38
2023-04-03T12:28:47.202Z,1.15
2023-04-03T12:31:18.073Z,1.08
2023-04-03T12:34:17.550Z,1.00
2023-04-03T12:37:01.942Z,1.35
2023-04-03T12:39:50.782Z,1.40
2023-04-03T12:42:42.513Z,1.10
2023-04-03T12:45:21.424Z,1.10
2023-04-03T12:47:53.826Z,4.07
2023-04-03T12:50:27.114Z,2.60
2023-04-03T12:53:01.714Z,2.50
2023-04-03T12:55:31.282Z,1.55
2023-04-03T12:58:16.317Z,2.10
2023-04-03T13:00:47.406Z,3.35
2023-04-03T13:03:27.877Z,1.17
2023-04-03T13:06:01.439Z,1.42
2023-04-03T13:08:31.912Z,1.58
2023-04-03T13:11:05.015Z,1.00
2023-04-03T13:13:34.482Z,0.80
2023-04-03T13:16:12.518Z,1.10
2023-04-03T13:18:42.178Z,1.65
2023-04-03T13:21:19.180Z,1.60
2023-04-03T13:23:55.244Z,1.50
2023-04-03T13:26:30.362Z,1.13
2023-04-03T13:29:05.028Z,1.80
2023-04-03T13:31:37.987Z,1.58
2023-04-03T13:34:12.915Z,1.45
2023-04-03T13:36:46.343Z,1.70
2023-04-03T13:39:26.086Z,1.67
2023-04-03T13:41:57.123Z,2.50
2023-04-03T13:44:33.932Z,1.52
2023-04-03T13:47:19.948Z,1.92
2023-04-03T13:50:02.781Z,1.33
2023-04-03T13:52:37.011Z,1.33
2023-04-03T13:55:26.030Z,0.80
2023-04-03T13:57:59.247Z,1.08
2023-04-03T14:00:35.096Z,1.30
2023-04-03T14:03:15.589Z,2.55
2023-04-03T14:05:46.283Z,1.70
2023-04-03T14:08:15.989Z,1.10
2023-04-03T14:10:45.818Z,0.93
2023-04-03T14:13:17.687Z,1.30
2023-04-03T14:15:48.582Z,1.60
2023-04-03T14:18:21.763Z,2.42
2023-04-03T14:20:52.486Z,1.30
2023-04-03T14:23:22.305Z,1.50
2023-04-03T14:25:51.933Z,1.05
2023-04-03T14:28:23.672Z,1.55
2023-04-03T14:30:53.876Z,1.70
2023-04-03T14:33:27.329Z,2.28
2023-04-03T14:35:57.790Z,2.00
2023-04-03T14:38:29.585Z,2.25
2023-04-03T14:41:13.670Z,1.60
2023-04-03T14:43:47.628Z,13.00
2023-04-03T14:46:20.189Z,11.45
2023-04-03T14:48:51.922Z,6.03
2023-04-03T14:51:21.301Z,1.70
2023-04-03T14:53:52.463Z,1.90
2023-04-03T14:56:26.225Z,1.05
2023-04-03T14:58:59.505Z,1.80
2023-04-03T15:01:29.928Z,4.70
2023-04-03T15:04:01.113Z,2.05
2023-04-03T15:06:30.718Z,1.80
2023-04-03T15:09:01.229Z,0.93
2023-04-03T15:11:30.596Z,1.83
2023-04-03T15:14:00.762Z,1.67
2023-04-03T15:16:31.072Z,2.45
2023-04-03T15:19:02.086Z,2.90
2023-04-03T15:21:31.453Z,3.45
2023-04-03T15:24:02.178Z,1.88
2023-04-03T15:26:32.184Z,1.85
2023-04-03T15:29:02.093Z,1.55
2023-04-03T15:31:31.481Z,1.83
2023-04-03T15:34:02.456Z,1.55
2023-04-03T15:36:34.559Z,1.20
2023-04-03T15:39:04.936Z,0.90
2023-04-03T15:41:34.485Z,1.27
2023-04-03T15:44:04.092Z,0.73
2023-04-03T15:46:34.546Z,1.35
2023-04-03T15:49:05.963Z,0.70
2023-04-03T15:51:35.514Z,3.03
2023-04-03T15:54:05.415Z,3.50
2023-04-03T15:56:34.683Z,1.85
2023-04-03T15:59:04.572Z,4.35
2023-04-03T16:01:34.487Z,3.15
2023-04-03T16:04:06.266Z,5.00
2023-04-03T16:06:35.737Z,5.05
2023-04-03T16:09:05.741Z,2.33
2023-04-03T16:11:36.482Z,1.70
2023-04-03T16:14:06.430Z,2.05
2023-04-03T16:16:36.176Z,1.80
2023-04-03T16:19:07.964Z,2.85
2023-04-03T16:21:37.311Z,4.07
2023-04-03T16:24:07.216Z,3.22
2023-04-03T16:26:36.731Z,2.67
2023-04-03T16:29:06.426Z,2.80
2023-04-03T16:31:36.561Z,2.25
2023-04-03T16:34:07.696Z,2.78
2023-04-03T16:36:38.640Z,2.22
2023-04-03T16:39:10.578Z,2.00
2023-04-03T16:41:39.979Z,3.33
2023-04-03T16:44:09.985Z,3.75
2023-04-03T16:46:39.549Z,2.95
2023-04-03T16:49:10.601Z,3.22
2023-04-03T16:51:40.213Z,4.15
2023-04-03T16:54:11.484Z,3.17
2023-04-03T16:56:41.207Z,3.50
2023-04-03T16:59:11.146Z,4.05
2023-04-03T17:01:40.667Z,1.98
2023-04-03T17:04:11.939Z,3.10
2023-04-03T17:06:42.051Z,2.75
2023-04-03T17:11:55.943Z,2.15
2023-04-03T17:14:25.938Z,2.78
2023-04-03T17:16:56.087Z,3.55
2023-04-03T17:19:27.985Z,3.30
2023-04-03T17:21:57.540Z,4.13
2023-04-03T17:24:27.861Z,2.85
2023-04-03T17:26:57.207Z,5.70
2023-04-03T17:29:26.778Z,3.90
2023-04-03T17:31:56.373Z,9.48
2023-04-03T17:34:27.536Z,3.92
2023-04-03T17:36:56.942Z,7.47
2023-04-03T17:39:26.854Z,7.43
2023-04-03T17:41:56.259Z,7.78
2023-04-03T17:44:26.363Z,6.25
2023-04-03T17:46:55.948Z,14.40
2023-04-03T17:49:27.211Z,9.82
2023-04-03T17:51:56.555Z,9.52
2023-04-03T17:54:26.323Z,12.18
2023-04-03T17:56:55.729Z,14.00
2023-04-03T17:59:26.594Z,5.63
2023-04-03T18:01:56.971Z,7.45
2023-04-03T18:04:30.991Z,5.60
2023-04-03T18:07:00.552Z,2.22
2023-04-03T18:09:35.014Z,2.17
2023-04-03T18:12:06.802Z,1.92
2023-04-03T18:14:40.201Z,2.35
2023-04-03T18:17:10.025Z,2.05
2023-04-03T18:19:41.713Z,1.17
2023-04-03T18:22:14.937Z,2.85
2023-04-03T18:24:45.812Z,3.35
2023-04-03T18:27:18.302Z,4.32
2023-04-03T18:29:53.819Z,2.42
2023-04-03T18:32:24.703Z,2.35
2023-04-03T18:34:57.190Z,6.97
2023-04-03T18:37:26.710Z,5.38
2023-04-03T18:39:56.845Z,4.63
2023-04-03T18:42:28.156Z,6.22
2023-04-03T18:45:02.873Z,6.22
2023-04-03T18:47:33.303Z,9.23
2023-04-03T18:50:05.107Z,3.25
2023-04-03T18:52:34.727Z,2.90
2023-04-03T18:55:04.457Z,2.60
2023-04-03T18:57:34.028Z,1.83
2023-04-03T19:00:04.883Z,3.50
2023-04-03T19:02:34.456Z,11.82
2023-04-03T19:05:06.021Z,12.48
2023-04-03T19:07:35.659Z,3.45
2023-04-03T19:10:06.019Z,3.53
2023-04-03T19:12:35.981Z,2.33
2023-04-03T19:15:06.318Z,3.33
2023-04-03T19:17:35.791Z,7.30
2023-04-03T19:20:07.987Z,11.70
2023-04-03T19:22:37.558Z,11.93
2023-04-03T19:25:09.984Z,3.95
2023-04-03T19:27:41.403Z,4.05
2023-04-03T19:30:13.165Z,2.00
2023-04-03T19:32:42.735Z,3.58
2023-04-03T19:35:15.068Z,4.40
2023-04-03T19:37:44.620Z,11.48
2023-04-03T19:40:14.530Z,10.05
2023-04-03T19:42:44.595Z,7.57
2023-04-03T19:45:18.184Z,3.60
2023-04-03T19:47:48.202Z,2.55
2023-04-03T19:50:19.562Z,2.20
2023-04-03T19:52:49.221Z,3.78
2023-04-03T19:55:19.075Z,4.03
2023-04-03T19:57:48.679Z,4.57
2023-04-03T20:00:19.267Z,6.38
2023-04-03T20:02:48.740Z,11.82
2023-04-03T20:05:20.080Z,5.60
2023-04-03T20:07:49.585Z,3.47
2023-04-03T20:10:19.605Z,2.92
2023-04-03T20:12:50.282Z,2.50
2023-04-03T20:15:20.217Z,4.15
2023-04-03T20:17:49.851Z,3.80
2023-04-03T20:20:20.958Z,3.00
2023-04-03T20:22:52.939Z,2.38
2023-04-03T20:25:42.286Z,4.43
2023-04-03T20:28:13.031Z,2.60
2023-04-03T20:30:43.570Z,1.95
2023-04-03T20:33:13.499Z,2.55
2023-04-03T20:35:44.429Z,1.55
2023-04-03T20:38:13.979Z,2.53
2023-04-03T20:40:43.793Z,2.42
2023-04-03T20:43:13.740Z,1.67
2023-04-03T20:45:44.037Z,2.78
2023-04-03T20:48:13.944Z,2.28
2023-04-03T20:50:45.960Z,2.72
2023-04-03T20:53:18.115Z,2.45
2023-04-03T20:55:56.832Z,2.38
2023-04-03T20:58:26.839Z,2.03
2023-04-03T21:00:56.671Z,1.65
2023-04-03T21:03:27.376Z,1.73
2023-04-03T21:06:01.011Z,1.35
2023-04-03T21:09:07.512Z,1.40
2023-04-03T21:12:14.140Z,1.88
2023-04-03T21:15:21.548Z,5.23
2023-04-03T21:18:17.227Z,2.40
2023-04-03T21:20:47.780Z,4.18
2023-04-03T21:23:17.685Z,7.40
2023-04-03T21:25:47.008Z,1.40
2023-04-03T21:28:17.443Z,2.22
2023-04-03T21:30:46.884Z,1.40
2023-04-03T21:33:17.965Z,1.80
2023-04-03T21:35:48.092Z,1.50
2023-04-03T21:38:18.205Z,3.08
2023-04-03T21:40:49.153Z,5.95
2023-04-03T21:43:18.843Z,4.68
2023-04-03T21:45:48.737Z,2.38
2023-04-03T21:48:20.525Z,2.70
2023-04-03T21:50:50.073Z,3.00
2023-04-03T21:53:20.575Z,5.25
2023-04-03T21:55:57.276Z,2.80
2023-04-03T21:58:32.034Z,2.15
2023-04-03T22:01:11.190Z,2.55
2023-04-03T22:03:43.703Z,3.00
2023-04-03T22:06:14.729Z,1.20
2023-04-03T22:08:44.918Z,0.90
2023-04-03T22:11:16.546Z,1.70
2023-04-03T22:13:46.802Z,3.70
2023-04-03T22:16:16.259Z,5.47
2023-04-03T22:18:47.384Z,2.90
2023-04-03T22:21:16.761Z,1.35
2023-04-03T22:23:46.427Z,0.93
2023-04-03T22:26:15.887Z,1.30
2023-04-03T22:28:47.004Z,0.80
2023-04-03T22:31:17.342Z,1.10
2023-04-03T22:33:48.331Z,1.13
2023-04-03T22:36:17.930Z,1.02
2023-04-03T22:38:47.924Z,1.30
2023-04-03T22:41:17.494Z,1.00
2023-04-03T22:43:47.134Z,1.20
2023-04-03T22:46:16.377Z,1.00
2023-04-03T22:48:48.213Z,1.10
2023-04-03T22:51:17.566Z,1.65
2023-04-03T22:53:47.030Z,1.15
2023-04-03T22:56:16.391Z,1.00
2023-04-03T22:58:48.107Z,1.05
2023-04-03T23:01:19.516Z,2.00
2023-04-03T23:03:51.367Z,1.52
2023-04-03T23:06:20.578Z,1.10
2023-04-03T23:08:50.010Z,1.15
2023-04-03T23:11:19.642Z,1.05
2023-04-03T23:13:49.145Z,1.00
2023-04-03T23:16:18.722Z,0.93
2023-04-03T23:18:50.176Z,0.77
2023-04-03T23:21:19.276Z,0.60
2023-04-03T23:23:48.942Z,1.30
2023-04-03T23:26:18.179Z,1.40
2023-04-03T23:28:48.042Z,0.98
2023-04-03T23:31:17.535Z,1.35
2023-04-03T23:33:47.225Z,1.05
2023-04-03T23:36:17.887Z,0.90
2023-04-03T23:38:47.452Z,0.90
2023-04-03T23:41:16.789Z,1.27
2023-04-03T23:43:47.562Z,0.90
2023-04-03T23:46:17.018Z,1.10
2023-04-03T23:48:46.633Z,0.63
2023-04-03T23:51:17.254Z,0.75
2023-04-03T23:53:46.704Z,1.10
2023-04-03T23:56:16.010Z,0.73
2023-04-03T23:58:45.531Z,1.13
